sensor_id;sensor_type;location;lat;lon;timestamp;pressure;altitude;pressure_sealevel;temperature;humidity
10464;BME280;5279;42.048;24.638;2023-03-14T00:01:19;97857.66;;;3.30;59.36
10464;BME280;5279;42.048;24.638;2023-03-14T00:03:46;97853.84;;;3.22;60.22
10464;BME280;5279;42.048;24.638;2023-03-14T00:06:15;97846.38;;;2.72;62.98
10464;BME280;5279;42.048;24.638;2023-03-14T00:08:43;97845.81;;;2.67;61.88
10464;BME280;5279;42.048;24.638;2023-03-14T00:11:12;97843.78;;;2.86;61.53
10464;BME280;5279;42.048;24.638;2023-03-14T00:13:39;97836.13;;;2.83;61.66
10464;BME280;5279;42.048;24.638;2023-03-14T00:16:08;97829.41;;;2.93;61.11
10464;BME280;5279;42.048;24.638;2023-03-14T00:18:35;97824.34;;;3.04;62.48
10464;BME280;5279;42.048;24.638;2023-03-14T00:21:03;97818.31;;;3.04;61.97
10464;BME280;5279;42.048;24.638;2023-03-14T00:23:33;97809.31;;;3.08;61.00
10464;BME280;5279;42.048;24.638;2023-03-14T00:26:00;97793.50;;;2.95;61.42
10464;BME280;5279;42.048;24.638;2023-03-14T00:28:28;97805.28;;;3.02;61.79
10464;BME280;5279;42.048;24.638;2023-03-14T00:30:55;97791.84;;;3.08;61.18
10464;BME280;5279;42.048;24.638;2023-03-14T00:33:22;97800.59;;;3.07;61.75
10464;BME280;5279;42.048;24.638;2023-03-14T00:35:54;97805.56;;;3.12;61.43
10464;BME280;5279;42.048;24.638;2023-03-14T00:38:21;97795.66;;;2.74;63.15
10464;BME280;5279;42.048;24.638;2023-03-14T00:40:51;97791.75;;;2.38;65.30
10464;BME280;5279;42.048;24.638;2023-03-14T00:43:18;97789.28;;;2.20;65.86
10464;BME280;5279;42.048;24.638;2023-03-14T00:45:47;97798.47;;;2.28;64.39
10464;BME280;5279;42.048;24.638;2023-03-14T00:48:13;97788.59;;;2.47;63.91
10464;BME280;5279;42.048;24.638;2023-03-14T00:50:40;97783.59;;;2.58;63.37
10464;BME280;5279;42.048;24.638;2023-03-14T00:53:07;97783.22;;;2.64;62.91
10464;BME280;5279;42.048;24.638;2023-03-14T00:55:36;97772.03;;;2.76;64.13
10464;BME280;5279;42.048;24.638;2023-03-14T00:58:05;97771.28;;;2.88;64.22
10464;BME280;5279;42.048;24.638;2023-03-14T01:00:32;97759.59;;;2.94;63.87
10464;BME280;5279;42.048;24.638;2023-03-14T01:02:59;97765.28;;;2.72;64.29
10464;BME280;5279;42.048;24.638;2023-03-14T01:05:27;97756.53;;;2.43;65.30
10464;BME280;5279;42.048;24.638;2023-03-14T01:07:54;97766.94;;;2.45;64.27
10464;BME280;5279;42.048;24.638;2023-03-14T01:10:21;97756.47;;;2.45;64.63
10464;BME280;5279;42.048;24.638;2023-03-14T01:12:48;97756.94;;;2.51;64.88
10464;BME280;5279;42.048;24.638;2023-03-14T01:15:19;97751.53;;;2.54;63.74
10464;BME280;5279;42.048;24.638;2023-03-14T01:17:46;97750.13;;;2.63;63.35
10464;BME280;5279;42.048;24.638;2023-03-14T01:20:14;97747.44;;;2.64;62.50
10464;BME280;5279;42.048;24.638;2023-03-14T01:22:42;97754.78;;;2.44;63.35
10464;BME280;5279;42.048;24.638;2023-03-14T01:25:10;97753.19;;;2.55;63.04
10464;BME280;5279;42.048;24.638;2023-03-14T01:27:38;97746.19;;;2.56;63.47
10464;BME280;5279;42.048;24.638;2023-03-14T01:30:06;97750.31;;;2.60;63.52
10464;BME280;5279;42.048;24.638;2023-03-14T01:32:34;97746.69;;;2.62;64.07
10464;BME280;5279;42.048;24.638;2023-03-14T01:35:02;97747.22;;;2.39;64.67
10464;BME280;5279;42.048;24.638;2023-03-14T01:37:29;97745.59;;;2.22;64.73
10464;BME280;5279;42.048;24.638;2023-03-14T01:39:55;97747.28;;;2.24;65.42
10464;BME280;5279;42.048;24.638;2023-03-14T01:42:22;97750.44;;;2.29;64.32
10464;BME280;5279;42.048;24.638;2023-03-14T01:44:51;97740.53;;;2.19;64.63
10464;BME280;5279;42.048;24.638;2023-03-14T01:47:18;97749.69;;;2.12;65.16
10464;BME280;5279;42.048;24.638;2023-03-14T01:49:50;97748.41;;;2.04;65.60
10464;BME280;5279;42.048;24.638;2023-03-14T01:52:20;97739.50;;;2.08;65.59
10464;BME280;5279;42.048;24.638;2023-03-14T01:54:51;97733.34;;;2.09;65.75
10464;BME280;5279;42.048;24.638;2023-03-14T01:57:23;97733.81;;;2.15;66.02
10464;BME280;5279;42.048;24.638;2023-03-14T01:59:53;97738.31;;;1.68;69.14
10464;BME280;5279;42.048;24.638;2023-03-14T02:02:21;97734.94;;;1.82;68.56
10464;BME280;5279;42.048;24.638;2023-03-14T02:04:51;97734.09;;;1.65;70.16
10464;BME280;5279;42.048;24.638;2023-03-14T02:07:20;97732.47;;;1.49;71.24
10464;BME280;5279;42.048;24.638;2023-03-14T02:09:49;97732.75;;;1.58;70.23
10464;BME280;5279;42.048;24.638;2023-03-14T02:12:17;97729.41;;;1.41;71.75
10464;BME280;5279;42.048;24.638;2023-03-14T02:14:44;97736.34;;;1.26;73.39
10464;BME280;5279;42.048;24.638;2023-03-14T02:17:14;97724.19;;;1.09;73.64
10464;BME280;5279;42.048;24.638;2023-03-14T02:20:05;97722.00;;;0.86;75.79
10464;BME280;5279;42.048;24.638;2023-03-14T02:22:34;97716.13;;;0.98;75.87
10464;BME280;5279;42.048;24.638;2023-03-14T02:25:05;97707.72;;;1.09;75.24
10464;BME280;5279;42.048;24.638;2023-03-14T02:27:37;97703.16;;;1.28;75.18
10464;BME280;5279;42.048;24.638;2023-03-14T02:30:06;97710.72;;;1.01;76.27
10464;BME280;5279;42.048;24.638;2023-03-14T02:32:36;97707.88;;;1.06;76.61
10464;BME280;5279;42.048;24.638;2023-03-14T02:35:08;97710.47;;;1.22;74.21
10464;BME280;5279;42.048;24.638;2023-03-14T02:37:38;97714.88;;;1.37;72.80
10464;BME280;5279;42.048;24.638;2023-03-14T02:40:08;97716.03;;;1.47;72.01
10464;BME280;5279;42.048;24.638;2023-03-14T02:42:37;97725.72;;;1.45;72.65
10464;BME280;5279;42.048;24.638;2023-03-14T02:48:06;97724.38;;;1.38;72.19
10464;BME280;5279;42.048;24.638;2023-03-14T02:50:34;97716.13;;;1.30;72.47
10464;BME280;5279;42.048;24.638;2023-03-14T02:53:01;97718.47;;;1.50;71.44
10464;BME280;5279;42.048;24.638;2023-03-14T02:55:28;97731.50;;;1.50;72.85
10464;BME280;5279;42.048;24.638;2023-03-14T02:57:56;97724.38;;;1.38;72.93
10464;BME280;5279;42.048;24.638;2023-03-14T03:00:23;97728.22;;;1.46;71.38
10464;BME280;5279;42.048;24.638;2023-03-14T03:02:50;97742.47;;;1.41;71.25
10464;BME280;5279;42.048;24.638;2023-03-14T03:05:17;97732.81;;;1.43;71.38
10464;BME280;5279;42.048;24.638;2023-03-14T03:07:43;97737.50;;;1.52;71.23
10464;BME280;5279;42.048;24.638;2023-03-14T03:10:11;97739.94;;;1.55;72.00
10464;BME280;5279;42.048;24.638;2023-03-14T03:12:38;97742.03;;;1.01;77.17
10464;BME280;5279;42.048;24.638;2023-03-14T03:15:07;97738.50;;;0.87;78.29
10464;BME280;5279;42.048;24.638;2023-03-14T03:17:34;97739.50;;;1.16;75.06
10464;BME280;5279;42.048;24.638;2023-03-14T03:20:01;97731.19;;;1.25;74.04
10464;BME280;5279;42.048;24.638;2023-03-14T03:22:29;97726.75;;;1.27;73.39
10464;BME280;5279;42.048;24.638;2023-03-14T03:24:56;97733.78;;;1.40;72.85
10464;BME280;5279;42.048;24.638;2023-03-14T03:27:23;97734.47;;;1.44;73.26
10464;BME280;5279;42.048;24.638;2023-03-14T03:29:51;97725.16;;;1.40;73.97
10464;BME280;5279;42.048;24.638;2023-03-14T03:32:19;97722.19;;;1.30;74.53
10464;BME280;5279;42.048;24.638;2023-03-14T03:34:46;97719.41;;;1.33;73.85
10464;BME280;5279;42.048;24.638;2023-03-14T03:37:13;97717.66;;;1.34;74.33
10464;BME280;5279;42.048;24.638;2023-03-14T03:39:40;97722.19;;;1.46;73.27
10464;BME280;5279;42.048;24.638;2023-03-14T03:42:07;97722.19;;;1.46;73.69
10464;BME280;5279;42.048;24.638;2023-03-14T03:44:34;97719.94;;;1.40;74.09
10464;BME280;5279;42.048;24.638;2023-03-14T03:47:00;97724.34;;;1.53;73.77
10464;BME280;5279;42.048;24.638;2023-03-14T03:49:30;97710.88;;;1.61;72.87
10464;BME280;5279;42.048;24.638;2023-03-14T03:51:57;97720.03;;;1.68;72.16
10464;BME280;5279;42.048;24.638;2023-03-14T03:54:24;97718.94;;;1.72;72.92
10464;BME280;5279;42.048;24.638;2023-03-14T03:56:52;97718.75;;;1.75;72.59
10464;BME280;5279;42.048;24.638;2023-03-14T03:59:18;97708.81;;;1.82;71.73
10464;BME280;5279;42.048;24.638;2023-03-14T04:01:46;97707.78;;;1.84;71.78
10464;BME280;5279;42.048;24.638;2023-03-14T04:04:13;97705.06;;;1.56;74.03
10464;BME280;5279;42.048;24.638;2023-03-14T04:06:41;97694.25;;;1.17;76.03
10464;BME280;5279;42.048;24.638;2023-03-14T04:09:08;97699.97;;;1.07;75.72
10464;BME280;5279;42.048;24.638;2023-03-14T04:11:35;97686.81;;;1.25;74.73
10464;BME280;5279;42.048;24.638;2023-03-14T04:14:03;97687.81;;;1.38;74.01
10464;BME280;5279;42.048;24.638;2023-03-14T04:16:30;97684.34;;;1.53;74.59
10464;BME280;5279;42.048;24.638;2023-03-14T04:18:57;97680.47;;;1.60;74.51
10464;BME280;5279;42.048;24.638;2023-03-14T04:21:24;97693.34;;;1.63;73.82
10464;BME280;5279;42.048;24.638;2023-03-14T04:23:52;97686.78;;;1.56;74.77
10464;BME280;5279;42.048;24.638;2023-03-14T04:26:19;97695.06;;;1.48;74.63
10464;BME280;5279;42.048;24.638;2023-03-14T04:28:46;97692.78;;;1.58;72.63
10464;BME280;5279;42.048;24.638;2023-03-14T04:31:17;97692.34;;;1.50;72.15
10464;BME280;5279;42.048;24.638;2023-03-14T04:33:45;97689.31;;;1.57;73.26
10464;BME280;5279;42.048;24.638;2023-03-14T04:36:12;97702.88;;;1.64;74.55
10464;BME280;5279;42.048;24.638;2023-03-14T04:38:40;97682.38;;;1.72;73.83
10464;BME280;5279;42.048;24.638;2023-03-14T04:41:08;97687.16;;;1.34;77.87
10464;BME280;5279;42.048;24.638;2023-03-14T04:43:35;97682.94;;;1.00;81.78
10464;BME280;5279;42.048;24.638;2023-03-14T04:46:02;97690.81;;;0.52;83.53
10464;BME280;5279;42.048;24.638;2023-03-14T04:48:29;97690.00;;;0.67;83.01
10464;BME280;5279;42.048;24.638;2023-03-14T04:50:56;97682.63;;;0.75;79.84
10464;BME280;5279;42.048;24.638;2023-03-14T04:53:23;97690.34;;;0.77;80.22
10464;BME280;5279;42.048;24.638;2023-03-14T04:55:50;97693.38;;;1.00;80.93
10464;BME280;5279;42.048;24.638;2023-03-14T04:58:20;97695.75;;;1.21;80.46
10464;BME280;5279;42.048;24.638;2023-03-14T05:00:47;97693.72;;;1.26;77.81
10464;BME280;5279;42.048;24.638;2023-03-14T05:03:14;97700.78;;;1.55;75.74
10464;BME280;5279;42.048;24.638;2023-03-14T05:05:41;97695.81;;;1.80;73.60
10464;BME280;5279;42.048;24.638;2023-03-14T05:08:08;97701.38;;;2.04;72.22
10464;BME280;5279;42.048;24.638;2023-03-14T05:10:36;97695.28;;;2.33;71.17
10464;BME280;5279;42.048;24.638;2023-03-14T05:13:03;97710.91;;;2.63;69.34
10464;BME280;5279;42.048;24.638;2023-03-14T05:15:31;97705.09;;;2.86;68.61
10464;BME280;5279;42.048;24.638;2023-03-14T05:17:58;97716.13;;;2.77;67.84
10464;BME280;5279;42.048;24.638;2023-03-14T05:20:25;97706.59;;;2.48;69.20
10464;BME280;5279;42.048;24.638;2023-03-14T05:22:54;97707.91;;;2.69;68.60
10464;BME280;5279;42.048;24.638;2023-03-14T05:25:21;97715.56;;;2.86;66.86
10464;BME280;5279;42.048;24.638;2023-03-14T05:27:48;97713.66;;;3.16;67.71
10464;BME280;5279;42.048;24.638;2023-03-14T05:30:15;97725.84;;;3.44;66.43
10464;BME280;5279;42.048;24.638;2023-03-14T05:32:43;97718.16;;;3.82;63.93
10464;BME280;5279;42.048;24.638;2023-03-14T05:35:10;97714.22;;;4.14;61.85
10464;BME280;5279;42.048;24.638;2023-03-14T05:37:38;97710.69;;;4.53;60.91
10464;BME280;5279;42.048;24.638;2023-03-14T05:40:06;97699.47;;;4.89;60.43
10464;BME280;5279;42.048;24.638;2023-03-14T05:42:34;97704.75;;;5.25;58.27
10464;BME280;5279;42.048;24.638;2023-03-14T05:45:01;97703.97;;;5.60;58.34
10464;BME280;5279;42.048;24.638;2023-03-14T05:47:28;97706.06;;;5.91;57.21
10464;BME280;5279;42.048;24.638;2023-03-14T05:49:56;97710.22;;;6.17;56.06
10464;BME280;5279;42.048;24.638;2023-03-14T05:52:23;97704.81;;;6.42;54.72
10464;BME280;5279;42.048;24.638;2023-03-14T05:54:49;97697.75;;;6.54;53.50
10464;BME280;5279;42.048;24.638;2023-03-14T05:57:16;97700.81;;;6.72;53.07
10464;BME280;5279;42.048;24.638;2023-03-14T05:59:43;97696.75;;;6.90;52.46
10464;BME280;5279;42.048;24.638;2023-03-14T06:02:10;97688.69;;;7.13;51.73
10464;BME280;5279;42.048;24.638;2023-03-14T06:04:37;97694.31;;;7.20;51.56
10464;BME280;5279;42.048;24.638;2023-03-14T06:07:05;97708.91;;;7.24;50.65
10464;BME280;5279;42.048;24.638;2023-03-14T06:09:32;97694.53;;;7.28;50.75
10464;BME280;5279;42.048;24.638;2023-03-14T06:11:59;97692.97;;;7.37;49.96
10464;BME280;5279;42.048;24.638;2023-03-14T06:14:26;97691.63;;;7.42;50.84
10464;BME280;5279;42.048;24.638;2023-03-14T06:16:52;97691.16;;;7.48;51.13
10464;BME280;5279;42.048;24.638;2023-03-14T06:19:19;97684.38;;;7.66;51.11
10464;BME280;5279;42.048;24.638;2023-03-14T06:21:46;97684.56;;;7.86;49.63
10464;BME280;5279;42.048;24.638;2023-03-14T06:24:15;97680.91;;;7.98;47.83
10464;BME280;5279;42.048;24.638;2023-03-14T06:26:41;97683.50;;;8.09;48.71
10464;BME280;5279;42.048;24.638;2023-03-14T06:29:08;97671.50;;;8.37;48.37
10464;BME280;5279;42.048;24.638;2023-03-14T06:31:35;97672.84;;;8.52;45.99
10464;BME280;5279;42.048;24.638;2023-03-14T06:34:02;97672.66;;;8.64;45.45
10464;BME280;5279;42.048;24.638;2023-03-14T06:36:29;97665.84;;;8.92;44.52
10464;BME280;5279;42.048;24.638;2023-03-14T06:38:56;97672.44;;;9.07;45.02
10464;BME280;5279;42.048;24.638;2023-03-14T06:41:26;97674.22;;;9.07;44.58
10464;BME280;5279;42.048;24.638;2023-03-14T06:43:52;97679.28;;;9.19;44.23
10464;BME280;5279;42.048;24.638;2023-03-14T06:46:19;97676.72;;;8.99;44.47
10464;BME280;5279;42.048;24.638;2023-03-14T06:48:46;97674.53;;;9.13;44.31
10464;BME280;5279;42.048;24.638;2023-03-14T06:51:13;97677.59;;;9.09;44.81
10464;BME280;5279;42.048;24.638;2023-03-14T06:53:40;97675.22;;;9.06;45.60
10464;BME280;5279;42.048;24.638;2023-03-14T06:56:09;97674.66;;;9.42;45.78
10464;BME280;5279;42.048;24.638;2023-03-14T06:58:37;97664.91;;;9.62;45.07
10464;BME280;5279;42.048;24.638;2023-03-14T07:01:05;97667.38;;;9.34;46.39
10464;BME280;5279;42.048;24.638;2023-03-14T07:03:32;97665.06;;;9.51;44.31
10464;BME280;5279;42.048;24.638;2023-03-14T07:05:59;97657.75;;;9.33;43.68
10464;BME280;5279;42.048;24.638;2023-03-14T07:08:26;97655.13;;;9.24;44.48
10464;BME280;5279;42.048;24.638;2023-03-14T07:10:53;97661.78;;;9.28;44.08
10464;BME280;5279;42.048;24.638;2023-03-14T07:13:22;97659.88;;;9.30;46.41
10464;BME280;5279;42.048;24.638;2023-03-14T07:15:50;97656.75;;;9.25;46.13
10464;BME280;5279;42.048;24.638;2023-03-14T07:18:17;97646.16;;;9.15;45.76
10464;BME280;5279;42.048;24.638;2023-03-14T07:20:45;97643.53;;;9.25;45.88
10464;BME280;5279;42.048;24.638;2023-03-14T07:23:11;97637.06;;;9.67;45.42
10464;BME280;5279;42.048;24.638;2023-03-14T07:25:38;97631.81;;;9.86;44.91
10464;BME280;5279;42.048;24.638;2023-03-14T07:28:05;97621.22;;;9.86;44.76
10464;BME280;5279;42.048;24.638;2023-03-14T07:30:32;97625.94;;;9.93;44.43
10464;BME280;5279;42.048;24.638;2023-03-14T07:33:00;97627.59;;;10.13;44.33
10464;BME280;5279;42.048;24.638;2023-03-14T07:35:27;97623.84;;;10.25;42.94
10464;BME280;5279;42.048;24.638;2023-03-14T07:37:54;97626.44;;;10.54;42.85
10464;BME280;5279;42.048;24.638;2023-03-14T07:40:21;97639.97;;;10.60;43.11
10464;BME280;5279;42.048;24.638;2023-03-14T07:42:47;97633.25;;;11.03;41.85
10464;BME280;5279;42.048;24.638;2023-03-14T07:45:15;97631.63;;;10.82;41.81
10464;BME280;5279;42.048;24.638;2023-03-14T07:47:42;97633.94;;;11.05;42.06
10464;BME280;5279;42.048;24.638;2023-03-14T07:50:10;97636.00;;;11.11;41.33
10464;BME280;5279;42.048;24.638;2023-03-14T07:52:37;97617.66;;;10.90;42.39
10464;BME280;5279;42.048;24.638;2023-03-14T07:55:05;97623.34;;;11.22;42.69
10464;BME280;5279;42.048;24.638;2023-03-14T07:57:32;97623.00;;;11.35;40.41
10464;BME280;5279;42.048;24.638;2023-03-14T07:59:58;97616.88;;;11.34;40.40
10464;BME280;5279;42.048;24.638;2023-03-14T08:02:25;97613.53;;;11.32;40.57
10464;BME280;5279;42.048;24.638;2023-03-14T08:04:52;97620.31;;;11.62;40.39
10464;BME280;5279;42.048;24.638;2023-03-14T08:07:20;97611.34;;;11.90;40.34
10464;BME280;5279;42.048;24.638;2023-03-14T08:09:47;97611.63;;;12.05;39.72
10464;BME280;5279;42.048;24.638;2023-03-14T08:12:14;97608.22;;;12.13;39.45
10464;BME280;5279;42.048;24.638;2023-03-14T08:14:41;97608.53;;;12.10;39.11
10464;BME280;5279;42.048;24.638;2023-03-14T08:17:09;97615.75;;;12.43;38.92
10464;BME280;5279;42.048;24.638;2023-03-14T08:19:36;97606.88;;;12.60;39.00
10464;BME280;5279;42.048;24.638;2023-03-14T08:22:03;97618.75;;;12.74;38.45
10464;BME280;5279;42.048;24.638;2023-03-14T08:24:31;97615.94;;;12.49;38.91
10464;BME280;5279;42.048;24.638;2023-03-14T08:26:58;97599.78;;;12.69;39.35
10464;BME280;5279;42.048;24.638;2023-03-14T08:29:25;97605.06;;;12.94;38.09
10464;BME280;5279;42.048;24.638;2023-03-14T08:31:52;97594.06;;;12.89;37.68
10464;BME280;5279;42.048;24.638;2023-03-14T08:34:20;97603.59;;;13.00;37.85
10464;BME280;5279;42.048;24.638;2023-03-14T08:36:47;97598.22;;;13.18;36.78
10464;BME280;5279;42.048;24.638;2023-03-14T08:39:14;97590.28;;;13.34;37.11
10464;BME280;5279;42.048;24.638;2023-03-14T08:41:42;97596.66;;;13.57;36.95
10464;BME280;5279;42.048;24.638;2023-03-14T08:44:10;97591.00;;;13.52;35.74
10464;BME280;5279;42.048;24.638;2023-03-14T08:46:37;97582.31;;;13.42;35.51
10464;BME280;5279;42.048;24.638;2023-03-14T08:49:04;97582.97;;;13.36;35.61
10464;BME280;5279;42.048;24.638;2023-03-14T08:51:31;97584.00;;;13.51;35.74
10464;BME280;5279;42.048;24.638;2023-03-14T08:53:58;97567.75;;;14.02;35.88
10464;BME280;5279;42.048;24.638;2023-03-14T08:56:25;97567.72;;;14.10;34.09
10464;BME280;5279;42.048;24.638;2023-03-14T08:58:53;97560.59;;;14.03;34.29
10464;BME280;5279;42.048;24.638;2023-03-14T09:01:20;97553.75;;;13.84;35.13
10464;BME280;5279;42.048;24.638;2023-03-14T09:03:50;97546.41;;;14.10;35.24
10464;BME280;5279;42.048;24.638;2023-03-14T09:06:17;97538.44;;;14.02;35.04
10464;BME280;5279;42.048;24.638;2023-03-14T09:08:44;97536.41;;;14.20;35.50
10464;BME280;5279;42.048;24.638;2023-03-14T09:11:11;97539.72;;;14.55;35.22
10464;BME280;5279;42.048;24.638;2023-03-14T09:13:38;97544.25;;;14.93;33.46
10464;BME280;5279;42.048;24.638;2023-03-14T09:16:07;97530.25;;;14.91;33.61
10464;BME280;5279;42.048;24.638;2023-03-14T09:18:34;97526.66;;;15.91;31.86
10464;BME280;5279;42.048;24.638;2023-03-14T09:21:01;97509.81;;;16.05;31.64
10464;BME280;5279;42.048;24.638;2023-03-14T09:23:28;97506.47;;;16.26;32.06
10464;BME280;5279;42.048;24.638;2023-03-14T09:25:56;97500.03;;;16.50;30.80
10464;BME280;5279;42.048;24.638;2023-03-14T09:28:24;97493.25;;;17.69;30.60
10464;BME280;5279;42.048;24.638;2023-03-14T09:30:51;97496.56;;;18.41;28.68
10464;BME280;5279;42.048;24.638;2023-03-14T09:33:20;97481.84;;;19.67;27.76
10464;BME280;5279;42.048;24.638;2023-03-14T09:35:47;97479.16;;;20.58;26.15
10464;BME280;5279;42.048;24.638;2023-03-14T09:38:14;97469.69;;;21.51;25.26
10464;BME280;5279;42.048;24.638;2023-03-14T09:40:42;97466.31;;;22.18;24.12
10464;BME280;5279;42.048;24.638;2023-03-14T09:43:11;97473.56;;;22.85;24.39
10464;BME280;5279;42.048;24.638;2023-03-14T09:45:41;97459.88;;;24.18;22.59
10464;BME280;5279;42.048;24.638;2023-03-14T09:48:15;97471.22;;;24.84;22.63
10464;BME280;5279;42.048;24.638;2023-03-14T09:50:47;97481.19;;;25.47;20.87
10464;BME280;5279;42.048;24.638;2023-03-14T09:53:18;97472.84;;;25.48;20.29
10464;BME280;5279;42.048;24.638;2023-03-14T09:55:45;97469.78;;;25.33;20.12
10464;BME280;5279;42.048;24.638;2023-03-14T09:58:20;97471.81;;;25.38;20.52
10464;BME280;5279;42.048;24.638;2023-03-14T10:00:47;97463.81;;;26.04;20.25
10464;BME280;5279;42.048;24.638;2023-03-14T10:03:26;97469.84;;;26.40;20.03
10464;BME280;5279;42.048;24.638;2023-03-14T10:05:57;97466.13;;;27.01;19.28
10464;BME280;5279;42.048;24.638;2023-03-14T10:08:24;97455.31;;;27.28;18.86
10464;BME280;5279;42.048;24.638;2023-03-14T10:10:51;97449.44;;;27.84;18.37
10464;BME280;5279;42.048;24.638;2023-03-14T10:13:19;97446.22;;;27.39;18.32
10464;BME280;5279;42.048;24.638;2023-03-14T10:15:50;97430.41;;;27.89;18.20
10464;BME280;5279;42.048;24.638;2023-03-14T10:18:18;97428.06;;;28.30;17.94
10464;BME280;5279;42.048;24.638;2023-03-14T10:20:46;97426.00;;;27.83;17.72
10464;BME280;5279;42.048;24.638;2023-03-14T10:23:27;97410.06;;;28.34;17.58
10464;BME280;5279;42.048;24.638;2023-03-14T10:26:07;97410.72;;;27.82;17.49
10464;BME280;5279;42.048;24.638;2023-03-14T10:28:38;97405.53;;;28.07;17.88
10464;BME280;5279;42.048;24.638;2023-03-14T10:31:05;97404.81;;;28.64;17.51
10464;BME280;5279;42.048;24.638;2023-03-14T10:33:34;97401.31;;;28.68;17.55
10464;BME280;5279;42.048;24.638;2023-03-14T10:36:02;97399.06;;;29.12;16.65
10464;BME280;5279;42.048;24.638;2023-03-14T10:38:32;97390.78;;;28.92;16.79
10464;BME280;5279;42.048;24.638;2023-03-14T10:40:59;97387.13;;;29.23;16.50
10464;BME280;5279;42.048;24.638;2023-03-14T10:43:30;97375.75;;;28.33;17.05
10464;BME280;5279;42.048;24.638;2023-03-14T10:46:00;97368.72;;;28.47;17.35
10464;BME280;5279;42.048;24.638;2023-03-14T10:48:33;97367.91;;;26.97;17.85
10464;BME280;5279;42.048;24.638;2023-03-14T10:51:17;97362.06;;;28.28;17.21
10464;BME280;5279;42.048;24.638;2023-03-14T10:53:48;97359.66;;;28.83;16.68
10464;BME280;5279;42.048;24.638;2023-03-14T10:56:18;97354.41;;;28.25;17.06
10464;BME280;5279;42.048;24.638;2023-03-14T10:58:47;97341.41;;;28.84;16.59
10464;BME280;5279;42.048;24.638;2023-03-14T11:01:25;97332.47;;;29.18;16.32
10464;BME280;5279;42.048;24.638;2023-03-14T11:03:57;97322.56;;;28.82;17.50
10464;BME280;5279;42.048;24.638;2023-03-14T11:06:31;97318.91;;;29.59;16.49
10464;BME280;5279;42.048;24.638;2023-03-14T11:09:07;97326.34;;;29.94;15.29
10464;BME280;5279;42.048;24.638;2023-03-14T11:11:39;97312.09;;;29.61;15.92
10464;BME280;5279;42.048;24.638;2023-03-14T11:14:18;97301.91;;;29.21;16.08
10464;BME280;5279;42.048;24.638;2023-03-14T11:16:54;97293.25;;;29.45;16.68
10464;BME280;5279;42.048;24.638;2023-03-14T11:19:50;97285.34;;;29.78;15.82
10464;BME280;5279;42.048;24.638;2023-03-14T11:22:30;97274.69;;;29.47;16.35
10464;BME280;5279;42.048;24.638;2023-03-14T11:25:13;97270.31;;;29.66;15.66
10464;BME280;5279;42.048;24.638;2023-03-14T11:27:45;97260.47;;;30.00;16.12
10464;BME280;5279;42.048;24.638;2023-03-14T11:30:19;97256.28;;;30.33;16.10
10464;BME280;5279;42.048;24.638;2023-03-14T11:32:52;97244.78;;;31.00;15.61
10464;BME280;5279;42.048;24.638;2023-03-14T11:35:24;97238.22;;;31.35;14.98
10464;BME280;5279;42.048;24.638;2023-03-14T11:37:56;97230.94;;;32.35;14.01
10464;BME280;5279;42.048;24.638;2023-03-14T11:40:31;97221.31;;;32.38;14.60
10464;BME280;5279;42.048;24.638;2023-03-14T11:43:08;97215.75;;;33.41;13.48
10464;BME280;5279;42.048;24.638;2023-03-14T11:45:39;97205.91;;;33.73;13.29
10464;BME280;5279;42.048;24.638;2023-03-14T11:48:16;97206.94;;;33.90;13.47
10464;BME280;5279;42.048;24.638;2023-03-14T11:50:46;97202.50;;;34.35;13.04
10464;BME280;5279;42.048;24.638;2023-03-14T11:53:17;97192.03;;;34.10;12.81
10464;BME280;5279;42.048;24.638;2023-03-14T11:55:47;97187.72;;;33.58;13.40
10464;BME280;5279;42.048;24.638;2023-03-14T11:58:19;97180.53;;;33.62;13.28
10464;BME280;5279;42.048;24.638;2023-03-14T12:00:49;97170.28;;;34.63;12.83
10464;BME280;5279;42.048;24.638;2023-03-14T12:03:23;97162.13;;;33.44;13.86
10464;BME280;5279;42.048;24.638;2023-03-14T12:05:58;97156.66;;;34.17;13.35
10464;BME280;5279;42.048;24.638;2023-03-14T12:08:38;97143.47;;;34.91;12.86
10464;BME280;5279;42.048;24.638;2023-03-14T12:11:12;97123.97;;;35.54;12.38
10464;BME280;5279;42.048;24.638;2023-03-14T12:13:46;97121.34;;;35.18;12.21
10464;BME280;5279;42.048;24.638;2023-03-14T12:16:31;97109.19;;;34.97;12.78
10464;BME280;5279;42.048;24.638;2023-03-14T12:19:13;97104.47;;;35.73;12.24
10464;BME280;5279;42.048;24.638;2023-03-14T12:21:47;97100.97;;;35.81;12.01
10464;BME280;5279;42.048;24.638;2023-03-14T12:24:18;97095.38;;;36.11;12.24
10464;BME280;5279;42.048;24.638;2023-03-14T12:26:53;97094.19;;;35.56;12.27
10464;BME280;5279;42.048;24.638;2023-03-14T12:29:21;97093.47;;;34.97;12.25
10464;BME280;5279;42.048;24.638;2023-03-14T12:31:49;97089.31;;;34.15;13.25
10464;BME280;5279;42.048;24.638;2023-03-14T12:34:27;97083.91;;;33.96;13.28
10464;BME280;5279;42.048;24.638;2023-03-14T12:37:00;97087.56;;;34.05;13.05
10464;BME280;5279;42.048;24.638;2023-03-14T12:39:40;97088.88;;;33.07;13.03
10464;BME280;5279;42.048;24.638;2023-03-14T12:42:13;97084.22;;;32.57;14.03
10464;BME280;5279;42.048;24.638;2023-03-14T12:44:44;97072.47;;;33.02;14.02
10464;BME280;5279;42.048;24.638;2023-03-14T12:50:18;97079.25;;;31.98;14.38
10464;BME280;5279;42.048;24.638;2023-03-14T12:53:10;97081.66;;;32.41;14.26
10464;BME280;5279;42.048;24.638;2023-03-14T12:55:46;97066.47;;;32.49;14.11
10464;BME280;5279;42.048;24.638;2023-03-14T12:58:21;97070.25;;;33.36;13.41
10464;BME280;5279;42.048;24.638;2023-03-14T13:00:55;97065.22;;;33.71;13.49
10464;BME280;5279;42.048;24.638;2023-03-14T13:03:26;97063.50;;;33.15;13.69
10464;BME280;5279;42.048;24.638;2023-03-14T13:05:55;97062.75;;;33.83;13.50
10464;BME280;5279;42.048;24.638;2023-03-14T13:08:35;97058.03;;;33.42;13.62
10464;BME280;5279;42.048;24.638;2023-03-14T13:11:05;97056.06;;;33.62;13.61
10464;BME280;5279;42.048;24.638;2023-03-14T13:13:37;97049.28;;;34.22;13.11
10464;BME280;5279;42.048;24.638;2023-03-14T13:16:14;97048.22;;;35.12;13.05
10464;BME280;5279;42.048;24.638;2023-03-14T13:18:42;97049.31;;;34.80;12.61
10464;BME280;5279;42.048;24.638;2023-03-14T13:21:13;97042.03;;;34.26;13.05
10464;BME280;5279;42.048;24.638;2023-03-14T13:23:54;97035.00;;;33.11;13.74